Terminal Aerodrome Forecast
Issued by NWS New Orleans/Baton Rouge, LA

Home | Current Version | Previous Version | Text Only | Print | Product List | Glossary On
Versions: 1 2 3 4 5 6 7 8 9 10 11 12 13 14
379
FTUS44 KLIX 271720
TAFBTR
TAF
KBTR 271720Z 2718/2818 06005KT P6SM BKN045 BKN060
     FM280100 15004KT P6SM BKN200=

USA.gov is the U.S. government's official web portal to all federal, state and local government web resources and services.